createdAt,value
2022-09-17T00:01:31.399Z,99.90
2022-09-17T00:04:03.972Z,99.90
2022-09-17T00:06:32.409Z,99.90
2022-09-17T00:09:00.312Z,99.90
2022-09-17T00:11:30.958Z,99.90
2022-09-17T00:14:02.076Z,99.90
2022-09-17T00:16:32.259Z,99.90
2022-09-17T00:19:01.319Z,99.90
2022-09-17T00:21:29.774Z,99.90
2022-09-17T00:23:59.347Z,99.90
2022-09-17T00:26:28.133Z,99.90
2022-09-17T00:28:57.731Z,99.90
2022-09-17T00:31:27.771Z,99.90
2022-09-17T00:33:55.713Z,99.90
2022-09-17T00:36:23.921Z,99.90
2022-09-17T00:38:52.471Z,99.90
2022-09-17T00:41:21.430Z,99.90
2022-09-17T00:43:52.008Z,99.90
2022-09-17T00:46:31.448Z,99.90
2022-09-17T00:49:02.124Z,99.90
2022-09-17T00:51:36.643Z,99.90
2022-09-17T00:54:07.641Z,99.90
2022-09-17T00:56:37.450Z,99.90
2022-09-17T00:59:06.380Z,99.90
2022-09-17T01:01:35.712Z,99.90
2022-09-17T01:04:04.110Z,99.90
2022-09-17T01:06:36.509Z,99.90
2022-09-17T01:09:15.649Z,99.90
2022-09-17T01:12:17.854Z,99.90
2022-09-17T01:15:03.066Z,99.90
2022-09-17T01:17:41.298Z,99.90
2022-09-17T01:20:33.702Z,99.90
2022-09-17T01:23:25.143Z,99.90
2022-09-17T01:26:07.887Z,99.90
2022-09-17T01:28:42.824Z,99.90
2022-09-17T01:31:22.853Z,99.90
2022-09-17T01:34:01.472Z,99.90
2022-09-17T01:36:43.906Z,99.90
2022-09-17T01:39:19.502Z,99.90
2022-09-17T01:41:53.975Z,99.90
2022-09-17T01:44:29.307Z,99.90
2022-09-17T01:47:06.229Z,99.90
2022-09-17T01:49:37.974Z,99.90
2022-09-17T01:52:08.386Z,99.90
2022-09-17T01:54:42.560Z,99.90
2022-09-17T01:57:17.082Z,99.90
2022-09-17T01:59:49.162Z,99.90
2022-09-17T02:02:24.299Z,99.90
2022-09-17T02:04:58.650Z,99.90
2022-09-17T02:07:26.979Z,99.90
2022-09-17T02:10:00.234Z,99.90
2022-09-17T02:12:34.307Z,99.90
2022-09-17T02:15:06.712Z,99.90
2022-09-17T02:17:40.696Z,99.90
2022-09-17T02:20:08.914Z,99.90
2022-09-17T02:22:43.519Z,99.90
2022-09-17T02:25:18.986Z,99.90
2022-09-17T02:27:57.265Z,99.90
2022-09-17T02:30:25.654Z,99.90
2022-09-17T02:32:55.103Z,99.90
2022-09-17T02:35:23.533Z,99.90
2022-09-17T02:37:53.183Z,99.90
2022-09-17T02:40:24.876Z,99.90
2022-09-17T02:43:02.042Z,99.90
2022-09-17T02:45:46.264Z,99.90
2022-09-17T02:48:51.979Z,99.90
2022-09-17T02:51:28.279Z,99.90
2022-09-17T02:54:02.011Z,99.90
2022-09-17T02:56:41.459Z,99.90
2022-09-17T02:59:19.626Z,99.90
2022-09-17T03:01:53.867Z,99.90
2022-09-17T03:04:25.633Z,99.90
2022-09-17T03:06:54.161Z,99.90
2022-09-17T03:09:22.043Z,99.90
2022-09-17T03:11:50.157Z,99.90
2022-09-17T03:14:20.694Z,99.90
2022-09-17T03:16:48.834Z,99.90
2022-09-17T03:19:16.721Z,99.90
2022-09-17T03:21:45.970Z,99.90
2022-09-17T03:24:14.069Z,99.90
2022-09-17T03:26:41.986Z,99.90
2022-09-17T03:29:09.877Z,81.10
2022-09-17T03:31:37.778Z,99.90
2022-09-17T03:34:05.901Z,99.70
2022-09-17T03:36:33.885Z,91.20
2022-09-17T03:39:03.142Z,86.10
2022-09-17T03:41:31.059Z,25.20
2022-09-17T03:43:58.953Z,55.50
2022-09-17T03:46:26.911Z,34.30
2022-09-17T03:48:54.833Z,56.40
2022-09-17T03:51:22.740Z,78.10
2022-09-17T03:53:50.740Z,99.90
2022-09-17T03:56:20.085Z,99.90
2022-09-17T03:58:47.949Z,99.90
2022-09-17T04:01:16.057Z,99.90
2022-09-17T04:03:45.332Z,99.90
2022-09-17T04:06:13.212Z,99.90
2022-09-17T04:08:41.081Z,99.90
2022-09-17T04:11:09.014Z,99.90
2022-09-17T04:13:38.291Z,99.90
2022-09-17T04:16:06.537Z,99.90
2022-09-17T04:18:34.964Z,99.90
2022-09-17T04:21:03.612Z,99.90
2022-09-17T04:23:31.520Z,99.90
2022-09-17T04:25:59.510Z,94.10
2022-09-17T04:28:27.389Z,99.90
2022-09-17T04:30:57.659Z,87.30
2022-09-17T04:33:26.493Z,82.60
2022-09-17T04:35:54.903Z,99.90
2022-09-17T04:38:22.834Z,95.00
2022-09-17T04:40:51.582Z,99.90
2022-09-17T04:43:19.504Z,96.00
2022-09-17T04:45:47.857Z,41.40
2022-09-17T04:48:17.977Z,63.80
2022-09-17T04:50:45.843Z,41.80
2022-09-17T04:53:13.767Z,71.20
2022-09-17T04:55:41.702Z,55.20
2022-09-17T04:58:09.859Z,95.80
2022-09-17T05:00:38.314Z,99.90
2022-09-17T05:03:06.191Z,85.50
2022-09-17T05:05:35.769Z,90.50
2022-09-17T05:08:04.423Z,80.60
2022-09-17T05:10:32.336Z,95.80
2022-09-17T05:13:00.253Z,99.90
2022-09-17T05:15:28.566Z,99.90
2022-09-17T05:17:56.587Z,98.30
2022-09-17T05:20:24.501Z,99.90
2022-09-17T05:22:54.124Z,99.90
2022-09-17T05:25:24.840Z,99.90
2022-09-17T05:27:53.246Z,99.90
2022-09-17T05:30:22.072Z,99.90
2022-09-17T05:32:50.355Z,99.90
2022-09-17T05:35:18.494Z,99.90
2022-09-17T05:37:46.403Z,99.90
2022-09-17T05:40:16.738Z,99.90
2022-09-17T05:42:44.702Z,99.90
2022-09-17T05:45:12.800Z,99.90
2022-09-17T05:47:40.727Z,99.90
2022-09-17T05:50:09.193Z,99.90
2022-09-17T05:52:37.054Z,99.90
2022-09-17T05:55:05.445Z,99.90
2022-09-17T05:57:34.674Z,99.90
2022-09-17T06:00:03.238Z,99.90
2022-09-17T06:02:31.165Z,99.90
2022-09-17T06:05:01.732Z,99.90
2022-09-17T06:07:29.613Z,99.90
2022-09-17T06:09:57.482Z,99.90
2022-09-17T06:12:25.361Z,99.90
2022-09-17T06:14:54.578Z,99.90
2022-09-17T06:17:22.445Z,99.90
2022-09-17T06:19:50.490Z,99.90
2022-09-17T06:22:20.514Z,99.90
2022-09-17T06:24:48.386Z,99.90
2022-09-17T06:27:16.297Z,99.90
2022-09-17T06:29:44.163Z,99.90
2022-09-17T06:32:15.609Z,99.90
2022-09-17T06:34:43.764Z,99.90
2022-09-17T06:37:11.673Z,99.90
2022-09-17T06:39:40.089Z,99.90
2022-09-17T06:42:08.238Z,99.90
2022-09-17T06:44:36.133Z,99.90
2022-09-17T06:47:04.026Z,99.90
2022-09-17T06:49:33.265Z,99.90
2022-09-17T06:52:01.710Z,99.90
2022-09-17T06:54:29.619Z,99.90
2022-09-17T06:56:57.532Z,99.90
2022-09-17T06:59:25.519Z,99.90
2022-09-17T07:01:53.443Z,99.90
2022-09-17T07:04:21.431Z,99.90
2022-09-17T07:06:50.672Z,99.90
2022-09-17T07:09:18.594Z,99.90
2022-09-17T07:11:46.531Z,99.90
2022-09-17T07:14:14.422Z,99.90
2022-09-17T07:16:43.141Z,99.90
2022-09-17T07:19:12.935Z,99.90
2022-09-17T07:21:42.613Z,99.90
2022-09-17T07:24:11.954Z,99.90
2022-09-17T07:26:39.818Z,99.90
2022-09-17T07:29:08.017Z,99.90
2022-09-17T07:31:35.927Z,99.90
2022-09-17T07:34:04.047Z,99.90
2022-09-17T07:36:31.939Z,99.90
2022-09-17T07:38:59.863Z,99.90
2022-09-17T07:41:29.105Z,73.80
2022-09-17T07:43:57.293Z,71.30
2022-09-17T07:46:25.336Z,99.90
2022-09-17T07:48:53.407Z,99.90
2022-09-17T07:51:22.896Z,99.90
2022-09-17T07:53:52.674Z,99.90
2022-09-17T07:56:20.847Z,99.90
2022-09-17T07:58:50.269Z,99.90
2022-09-17T08:01:20.889Z,99.90
2022-09-17T08:03:51.001Z,99.90
2022-09-17T08:06:20.925Z,99.90
2022-09-17T08:08:49.647Z,99.90
2022-09-17T08:11:38.263Z,99.90
2022-09-17T08:14:10.687Z,99.90
2022-09-17T08:16:38.574Z,99.90
2022-09-17T08:19:06.497Z,99.90
2022-09-17T08:21:34.402Z,99.90
2022-09-17T08:24:02.720Z,99.90
2022-09-17T08:26:30.614Z,99.90
2022-09-17T08:28:58.694Z,99.90
2022-09-17T08:31:30.295Z,99.90
2022-09-17T08:33:59.775Z,99.90
2022-09-17T08:36:28.491Z,99.90
2022-09-17T08:38:58.613Z,99.90
2022-09-17T08:41:34.288Z,99.90
2022-09-17T08:44:14.404Z,99.90
2022-09-17T08:46:48.576Z,99.90
2022-09-17T08:49:26.608Z,99.90
2022-09-17T08:52:17.418Z,99.90
2022-09-17T08:54:51.361Z,99.90
2022-09-17T08:57:29.102Z,99.90
2022-09-17T09:00:03.957Z,99.90
2022-09-17T09:02:56.183Z,99.90
2022-09-17T09:05:29.607Z,99.90
2022-09-17T09:08:05.140Z,99.90
2022-09-17T09:10:44.714Z,99.90
2022-09-17T09:13:16.211Z,99.90
2022-09-17T09:15:48.269Z,99.90
2022-09-17T09:18:20.755Z,99.90
2022-09-17T09:20:51.613Z,99.90
2022-09-17T09:23:22.173Z,99.90
2022-09-17T09:25:55.901Z,99.90
2022-09-17T09:28:59.288Z,99.90
2022-09-17T09:31:41.485Z,99.90
2022-09-17T09:34:13.164Z,99.90
2022-09-17T09:36:41.202Z,99.90
2022-09-17T09:39:15.819Z,99.90
2022-09-17T09:41:47.217Z,99.90
2022-09-17T09:44:16.877Z,99.90
2022-09-17T09:47:00.514Z,88.10
2022-09-17T09:49:42.168Z,99.90
2022-09-17T09:52:23.298Z,90.90
2022-09-17T09:55:06.059Z,99.90
2022-09-17T09:57:41.572Z,98.60
2022-09-17T10:00:36.876Z,99.90
2022-09-17T10:03:13.603Z,99.90
2022-09-17T10:05:54.174Z,99.90
2022-09-17T10:08:22.083Z,87.30
2022-09-17T10:11:01.960Z,99.90
2022-09-17T10:13:31.814Z,99.90
2022-09-17T10:16:18.121Z,99.90
2022-09-17T10:18:47.510Z,99.90
2022-09-17T10:21:23.050Z,81.10
2022-09-17T10:23:51.649Z,1.00
2022-09-17T10:26:25.621Z,1.00
2022-09-17T10:28:56.306Z,1.00
2022-09-17T10:31:24.508Z,1.00
2022-09-17T10:33:56.707Z,1.00
2022-09-17T10:36:40.782Z,1.00
2022-09-17T10:39:44.525Z,1.00
2022-09-17T10:42:16.313Z,1.00
2022-09-17T10:44:53.089Z,1.00
2022-09-17T10:47:25.128Z,17.70
2022-09-17T10:49:57.446Z,1.00
2022-09-17T10:52:30.362Z,46.50
2022-09-17T10:55:14.334Z,1.00
2022-09-17T10:58:04.497Z,1.00
2022-09-17T11:00:43.954Z,1.00
2022-09-17T11:03:47.566Z,1.00
2022-09-17T11:06:28.251Z,1.00
2022-09-17T11:09:09.834Z,99.90
2022-09-17T11:11:51.036Z,1.00
2022-09-17T11:14:38.029Z,1.00
2022-09-17T11:17:13.597Z,1.00
2022-09-17T11:19:55.434Z,1.00
2022-09-17T11:22:31.614Z,99.90
2022-09-17T11:25:24.265Z,99.90
2022-09-17T11:28:05.274Z,1.00
2022-09-17T11:30:41.895Z,1.00
2022-09-17T11:33:28.735Z,20.00
2022-09-17T11:36:01.602Z,1.00
2022-09-17T11:38:39.641Z,99.90
2022-09-17T11:41:13.770Z,1.00
2022-09-17T11:43:47.839Z,1.00
2022-09-17T11:46:19.846Z,99.90
2022-09-17T11:48:52.063Z,99.10
2022-09-17T11:51:31.856Z,46.20
2022-09-17T11:54:07.840Z,99.90
2022-09-17T11:56:42.698Z,99.90
2022-09-17T11:59:19.578Z,1.00
2022-09-17T12:01:53.851Z,1.00
2022-09-17T12:04:42.608Z,1.00
2022-09-17T12:07:20.406Z,1.00
2022-09-17T12:09:54.803Z,1.00
2022-09-17T12:12:48.254Z,1.00
2022-09-17T12:15:21.577Z,99.90
2022-09-17T12:18:08.568Z,99.90
2022-09-17T12:20:46.612Z,99.90
2022-09-17T12:23:19.091Z,1.00
2022-09-17T12:25:53.866Z,1.00
2022-09-17T12:28:32.364Z,99.90
2022-09-17T12:31:07.268Z,99.90
2022-09-17T12:33:40.492Z,99.90
2022-09-17T12:36:26.426Z,99.90
2022-09-17T12:39:07.793Z,99.90
2022-09-17T12:41:46.659Z,1.00
2022-09-17T12:44:36.677Z,99.90
2022-09-17T12:47:20.895Z,99.90
2022-09-17T12:50:07.686Z,99.90
2022-09-17T12:52:49.791Z,62.90
2022-09-17T12:55:36.794Z,1.00
2022-09-17T12:58:15.904Z,1.00
2022-09-17T13:00:51.737Z,1.00
2022-09-17T13:03:25.563Z,1.00
2022-09-17T13:06:23.181Z,1.00
2022-09-17T13:09:32.873Z,1.00
2022-09-17T13:12:26.019Z,1.00
2022-09-17T13:15:17.146Z,1.00
2022-09-17T13:18:12.893Z,1.00
2022-09-17T13:20:49.183Z,1.00
2022-09-17T13:23:17.290Z,1.00
2022-09-17T13:25:53.188Z,1.00
2022-09-17T13:28:21.046Z,1.00
2022-09-17T13:30:59.739Z,1.00
2022-09-17T13:33:51.346Z,1.00
2022-09-17T13:36:38.152Z,1.00
2022-09-17T13:39:07.954Z,1.00
2022-09-17T13:41:39.715Z,1.00
2022-09-17T13:44:10.202Z,1.00
2022-09-17T13:46:39.643Z,1.00
2022-09-17T13:49:16.441Z,1.00
2022-09-17T13:51:53.062Z,1.00
2022-09-17T13:54:24.278Z,1.00
2022-09-17T13:57:08.528Z,1.00
2022-09-17T13:59:37.726Z,1.00
2022-09-17T14:02:41.369Z,1.00
2022-09-17T14:05:35.759Z,1.00
2022-09-17T14:08:30.519Z,1.00
2022-09-17T14:11:01.016Z,1.00
2022-09-17T14:13:45.696Z,1.00
2022-09-17T14:16:47.373Z,1.00
2022-09-17T14:19:37.939Z,1.00
2022-09-17T14:22:18.481Z,1.00
2022-09-17T14:24:52.596Z,1.00
2022-09-17T14:27:52.055Z,1.00
2022-09-17T14:30:21.486Z,1.00
2022-09-17T14:32:58.096Z,1.00
2022-09-17T14:35:32.527Z,1.00
2022-09-17T14:38:05.079Z,1.00
2022-09-17T14:40:35.208Z,1.00
2022-09-17T14:43:04.551Z,1.00
2022-09-17T14:45:34.584Z,1.00
2022-09-17T14:48:31.481Z,1.00
2022-09-17T14:51:28.321Z,1.00
2022-09-17T14:54:16.274Z,1.00
2022-09-17T14:56:58.149Z,1.00
2022-09-17T14:59:44.786Z,1.00
2022-09-17T15:02:28.004Z,1.00
2022-09-17T15:04:56.167Z,1.00
2022-09-17T15:07:24.947Z,1.00
2022-09-17T15:09:55.471Z,1.00
2022-09-17T15:12:29.063Z,1.00
2022-09-17T15:14:59.036Z,1.00
2022-09-17T15:17:27.020Z,1.00
2022-09-17T15:19:59.040Z,1.00
2022-09-17T15:22:28.681Z,99.90
2022-09-17T15:25:02.079Z,99.90
2022-09-17T15:27:33.645Z,99.90
2022-09-17T15:30:04.220Z,99.90
2022-09-17T15:32:33.513Z,1.00
2022-09-17T15:35:23.287Z,99.90
2022-09-17T15:38:18.903Z,99.90
2022-09-17T15:40:43.077Z,1.00
2022-09-17T15:43:19.561Z,99.90
2022-09-17T15:45:47.462Z,99.90
2022-09-17T15:48:35.719Z,99.90
2022-09-17T15:51:06.926Z,1.00
2022-09-17T15:53:36.537Z,99.90
2022-09-17T15:56:08.417Z,1.00
2022-09-17T15:58:50.742Z,1.00
2022-09-17T16:01:54.589Z,99.90
2022-09-17T16:04:27.886Z,1.00
2022-09-17T16:06:58.683Z,1.00
2022-09-17T16:09:47.010Z,99.90
2022-09-17T16:12:18.966Z,1.00
2022-09-17T16:14:52.272Z,1.00
2022-09-17T16:17:35.472Z,1.00
2022-09-17T16:20:19.867Z,13.90
2022-09-17T16:22:48.268Z,37.00
2022-09-17T16:25:16.850Z,61.40
2022-09-17T16:27:51.587Z,35.70
2022-09-17T16:30:21.790Z,21.10
2022-09-17T16:32:49.989Z,39.20
2022-09-17T16:35:19.820Z,27.90
2022-09-17T16:37:50.365Z,37.50
2022-09-17T16:40:19.052Z,98.30
2022-09-17T16:42:48.715Z,22.60
2022-09-17T16:45:17.228Z,99.90
2022-09-17T16:47:45.424Z,7.80
2022-09-17T16:50:14.946Z,83.30
2022-09-17T16:52:43.150Z,9.10
2022-09-17T16:55:11.708Z,13.20
2022-09-17T16:57:39.669Z,79.30
2022-09-17T17:00:13.019Z,99.90
2022-09-17T17:02:41.079Z,99.90
2022-09-17T17:05:10.571Z,99.90
2022-09-17T17:07:38.645Z,99.90
2022-09-17T17:10:08.987Z,99.90
2022-09-17T17:12:37.215Z,99.90
2022-09-17T17:15:06.924Z,99.90
2022-09-17T17:17:36.762Z,99.90
2022-09-17T17:20:07.694Z,99.90
2022-09-17T17:22:36.930Z,99.90
2022-09-17T17:25:05.584Z,99.90
2022-09-17T17:27:33.887Z,99.90
2022-09-17T17:30:06.412Z,99.90
2022-09-17T17:32:36.595Z,99.90
2022-09-17T17:35:05.240Z,99.90
2022-09-17T17:37:33.194Z,99.90
2022-09-17T17:40:01.922Z,99.90
2022-09-17T17:42:35.704Z,99.90
2022-09-17T17:45:03.722Z,99.90
2022-09-17T17:47:31.702Z,99.90
2022-09-17T17:50:00.973Z,99.90
2022-09-17T17:52:29.122Z,99.90
2022-09-17T17:54:57.011Z,99.90
2022-09-17T17:57:25.195Z,99.90
2022-09-17T17:59:53.054Z,99.90
2022-09-17T18:02:21.197Z,99.90
2022-09-17T18:04:49.194Z,99.90
2022-09-17T18:07:18.435Z,99.90
2022-09-17T18:09:46.491Z,99.90
2022-09-17T18:12:14.398Z,99.90
2022-09-17T18:14:42.323Z,99.90
2022-09-17T18:17:10.219Z,99.90
2022-09-17T18:19:38.173Z,99.90
2022-09-17T18:22:06.086Z,99.90
2022-09-17T18:24:35.306Z,99.90
2022-09-17T18:27:03.690Z,99.90
2022-09-17T18:29:31.579Z,99.90
2022-09-17T18:31:59.493Z,99.90
2022-09-17T18:34:27.456Z,99.90
2022-09-17T18:36:55.360Z,99.90
2022-09-17T18:39:57.057Z,99.90
2022-09-17T18:42:12.663Z,99.90
2022-09-17T18:44:40.558Z,99.90
2022-09-17T18:47:08.635Z,99.90
2022-09-17T18:49:36.513Z,99.90
2022-09-17T18:52:04.424Z,99.90
2022-09-17T18:54:32.447Z,99.90
2022-09-17T18:57:00.342Z,99.90
2022-09-17T18:59:29.607Z,99.90
2022-09-17T19:01:57.571Z,99.90
2022-09-17T19:04:25.765Z,99.90
2022-09-17T19:06:53.599Z,99.90
2022-09-17T19:09:21.624Z,99.90
2022-09-17T19:11:49.533Z,99.90
2022-09-17T19:14:17.435Z,99.90
2022-09-17T19:16:46.699Z,99.90
2022-09-17T19:19:14.582Z,99.90
2022-09-17T19:21:42.546Z,99.90
2022-09-17T19:24:10.431Z,99.90
2022-09-17T19:26:39.400Z,99.90
2022-09-17T19:29:09.013Z,99.90
2022-09-17T19:31:40.007Z,99.90
2022-09-17T19:34:09.559Z,99.90
2022-09-17T19:36:37.589Z,49.20
2022-09-17T19:39:05.645Z,3.90
2022-09-17T19:41:36.048Z,42.70
2022-09-17T19:44:04.122Z,95.50
2022-09-17T19:46:32.369Z,99.90
2022-09-17T19:49:01.021Z,99.90
2022-09-17T19:51:31.835Z,99.90
2022-09-17T19:53:59.847Z,99.90
2022-09-17T19:56:28.873Z,99.90
2022-09-17T19:58:57.970Z,99.90
2022-09-17T20:01:26.694Z,99.90
2022-09-17T20:03:54.825Z,99.90
2022-09-17T20:06:23.989Z,99.90
2022-09-17T20:08:56.054Z,99.90
2022-09-17T20:11:27.653Z,99.90
2022-09-17T20:13:58.712Z,99.90
2022-09-17T20:16:27.583Z,99.90
2022-09-17T20:18:55.885Z,99.90
2022-09-17T20:21:25.638Z,99.90
2022-09-17T20:23:58.045Z,99.90
2022-09-17T20:26:26.750Z,99.90
2022-09-17T20:28:55.410Z,99.90
2022-09-17T20:31:25.560Z,99.90
2022-09-17T20:33:55.381Z,99.90
2022-09-17T20:36:25.394Z,99.90
2022-09-17T20:39:14.303Z,99.90
2022-09-17T20:41:43.631Z,79.80
2022-09-17T20:44:11.935Z,1.00
2022-09-17T20:46:40.292Z,1.00
2022-09-17T20:49:11.510Z,1.00
2022-09-17T20:51:39.865Z,2.90
2022-09-17T20:54:11.844Z,1.00
2022-09-17T20:56:43.022Z,64.20
2022-09-17T20:59:15.144Z,65.20
2022-09-17T21:01:45.174Z,99.90
2022-09-17T21:04:16.099Z,99.90
2022-09-17T21:06:44.945Z,99.90
2022-09-17T21:09:16.824Z,99.90
2022-09-17T21:11:46.237Z,99.90
2022-09-17T21:14:15.795Z,99.90
2022-09-17T21:16:44.367Z,99.90
2022-09-17T21:19:13.549Z,99.90
2022-09-17T21:21:41.562Z,99.90
2022-09-17T21:24:10.765Z,99.90
2022-09-17T21:26:40.317Z,99.90
2022-09-17T21:29:08.601Z,99.90
2022-09-17T21:31:38.518Z,99.90
2022-09-17T21:34:08.190Z,99.90
2022-09-17T21:36:37.954Z,99.90
2022-09-17T21:39:08.721Z,99.90
2022-09-17T21:41:42.079Z,99.90
2022-09-17T21:44:13.372Z,99.90
2022-09-17T21:46:42.945Z,99.90
2022-09-17T21:49:11.618Z,99.90
2022-09-17T21:51:41.440Z,99.90
2022-09-17T21:54:11.299Z,99.90
2022-09-17T21:56:39.566Z,99.90
2022-09-17T21:59:11.703Z,99.90
2022-09-17T22:01:44.018Z,99.90
2022-09-17T22:04:13.917Z,99.90
2022-09-17T22:06:43.250Z,99.90
2022-09-17T22:09:16.253Z,99.90
2022-09-17T22:11:44.637Z,99.90
2022-09-17T22:14:14.790Z,99.90
2022-09-17T22:16:46.114Z,99.90
2022-09-17T22:19:16.118Z,99.90
2022-09-17T22:21:47.251Z,99.90
2022-09-17T22:24:16.956Z,99.90
2022-09-17T22:26:47.718Z,99.90
2022-09-17T22:29:19.478Z,99.90
2022-09-17T22:31:49.860Z,99.90
2022-09-17T22:34:19.834Z,99.90
2022-09-17T22:36:49.491Z,99.90
2022-09-17T22:39:19.084Z,99.90
2022-09-17T22:41:47.232Z,99.90
2022-09-17T22:44:17.626Z,99.90
2022-09-17T22:46:47.446Z,99.90
2022-09-17T22:49:17.002Z,99.90
2022-09-17T22:51:46.655Z,99.90
2022-09-17T22:54:16.643Z,99.90
2022-09-17T22:56:45.159Z,99.90
2022-09-17T22:59:13.651Z,99.90
2022-09-17T23:01:42.580Z,99.90
2022-09-17T23:04:11.139Z,99.90
2022-09-17T23:06:42.503Z,99.90
2022-09-17T23:09:10.578Z,99.90
2022-09-17T23:11:40.402Z,99.90
2022-09-17T23:14:10.578Z,99.90
2022-09-17T23:16:40.614Z,99.90
2022-09-17T23:19:09.008Z,99.90
2022-09-17T23:21:38.100Z,99.90
2022-09-17T23:24:07.873Z,99.90
2022-09-17T23:26:35.807Z,99.90
2022-09-17T23:29:05.542Z,99.90
2022-09-17T23:31:35.220Z,99.90
2022-09-17T23:34:04.904Z,99.90
2022-09-17T23:36:35.025Z,99.90
2022-09-17T23:39:03.653Z,99.90
2022-09-17T23:41:34.698Z,99.90
2022-09-17T23:44:04.266Z,99.90
2022-09-17T23:46:34.178Z,99.90
2022-09-17T23:49:02.824Z,99.90
2022-09-17T23:51:32.741Z,99.90
2022-09-17T23:54:00.854Z,99.90
2022-09-17T23:56:29.539Z,99.90
2022-09-17T23:59:01.238Z,99.90
